Time;durP1;ratioP1;P1;durP2;ratioP2;P2;SDS_P1;SDS_P2;PMS_P1;PMS_P2;Temp;Humidity;BMP_temperature;BMP_pressure;BME280_temperature;BME280_humidity;BME280_pressure;Samples;Min_cycle;Max_cycle;Signal;HPM_P1;HPM_P2
2023/05/06 00:00:38;;;;;;;22.58;16.80;;;12.10;99.90;;;;;;5094792;28;20051;-89
2023/05/06 00:03:03;;;;;;;23.48;16.52;;;12.10;99.90;;;;;;5096216;28;20522;-88
2023/05/06 00:05:30;;;;;;;23.50;16.85;;;12.20;99.90;;;;;;5096050;28;20090;-88
2023/05/06 00:07:55;;;;;;;25.23;17.33;;;12.00;99.90;;;;;;5094586;28;20040;-88
2023/05/06 00:10:21;;;;;;;25.42;17.55;;;12.10;99.90;;;;;;5095823;28;20174;-88
2023/05/06 00:12:47;;;;;;;26.05;17.75;;;12.00;99.90;;;;;;5095822;28;20365;-88
2023/05/06 00:15:12;;;;;;;25.38;18.33;;;12.10;99.90;;;;;;5094558;28;20067;-88
2023/05/06 00:17:38;;;;;;;25.65;17.45;;;12.10;99.90;;;;;;5095819;28;20044;-88
2023/05/06 00:20:05;;;;;;;25.35;18.20;;;12.10;99.90;;;;;;5094390;28;20059;-88
2023/05/06 00:22:30;;;;;;;26.67;17.80;;;12.00;99.90;;;;;;5095717;28;20119;-88
2023/05/06 00:24:56;;;;;;;25.95;17.70;;;12.00;99.90;;;;;;5095347;28;20134;-88
2023/05/06 00:27:22;;;;;;;26.55;18.67;;;12.00;99.90;;;;;;5095473;28;20052;-88
2023/05/06 00:29:47;;;;;;;29.05;17.98;;;12.00;99.90;;;;;;5094270;28;20097;-88
2023/05/06 00:32:13;;;;;;;26.02;18.17;;;12.00;99.90;;;;;;5095509;28;20040;-88
2023/05/06 00:34:38;;;;;;;27.88;18.75;;;12.00;99.90;;;;;;5095207;28;20475;-88
2023/05/06 00:37:04;;;;;;;24.50;17.77;;;11.90;99.90;;;;;;5095453;28;20047;-87
2023/05/06 00:39:30;;;;;;;26.00;19.17;;;11.90;99.90;;;;;;5095172;28;20048;-88
2023/05/06 00:42:01;;;;;;;26.77;18.65;;;11.90;99.90;;;;;;5093974;28;20090;-88
2023/05/06 00:44:30;;;;;;;26.00;18.63;;;11.80;99.90;;;;;;5094279;28;20044;-88
2023/05/06 00:46:58;;;;;;;23.75;16.48;;;11.80;99.90;;;;;;5093953;28;20084;-88
2023/05/06 00:49:24;;;;;;;26.20;18.20;;;11.70;99.90;;;;;;5094933;28;20391;-88
2023/05/06 00:51:52;;;;;;;27.92;17.23;;;11.80;99.90;;;;;;5095231;28;20082;-88
2023/05/06 00:54:18;;;;;;;23.58;17.50;;;11.80;99.90;;;;;;5093964;28;20543;-88
2023/05/06 00:56:44;;;;;;;23.15;16.73;;;11.80;99.90;;;;;;5094961;28;20040;-88
2023/05/06 00:59:10;;;;;;;23.67;17.60;;;11.70;99.90;;;;;;5093690;28;20042;-88
2023/05/06 01:01:36;;;;;;;22.10;15.50;;;11.60;99.90;;;;;;5094691;28;20441;-88
2023/05/06 01:04:02;;;;;;;22.33;16.58;;;11.60;99.90;;;;;;5094963;28;20039;-88
2023/05/06 01:06:54;;;;;;;22.33;16.05;;;11.70;99.90;;;;;;5094850;28;20108;-88
2023/05/06 01:09:38;;;;;;;23.65;17.42;;;11.60;99.90;;;;;;5093798;28;20035;-88
2023/05/06 01:12:28;;;;;;;21.95;15.48;;;11.60;99.90;;;;;;5094771;28;20044;-88
2023/05/06 01:15:08;;;;;;;25.50;16.40;;;11.60;99.90;;;;;;5093278;28;20044;-88
2023/05/06 01:17:38;;;;;;;20.55;14.43;;;11.50;99.90;;;;;;5094653;28;20036;-88
2023/05/06 01:20:09;;;;;;;23.90;15.63;;;11.60;99.90;;;;;;5093460;28;20127;-88
2023/05/06 01:22:36;;;;;;;21.98;14.85;;;11.60;99.90;;;;;;5093331;28;20034;-88
2023/05/06 01:25:05;;;;;;;22.20;15.00;;;11.60;99.90;;;;;;5094309;28;20130;-88
2023/05/06 01:27:31;;;;;;;19.75;13.88;;;11.60;99.90;;;;;;5093124;28;20476;-88
2023/05/06 01:29:58;;;;;;;21.67;14.55;;;11.50;99.90;;;;;;5093352;28;20047;-88
2023/05/06 01:32:53;;;;;;;22.75;15.65;;;11.60;99.90;;;;;;5094409;28;20052;-88
2023/05/06 01:35:39;;;;;;;20.52;15.23;;;11.50;99.90;;;;;;5042736;28;20048;-88
2023/05/06 01:38:26;;;;;;;20.38;13.90;;;11.50;99.90;;;;;;5094324;28;20052;-88
2023/05/06 01:40:55;;;;;;;20.08;14.05;;;11.50;99.90;;;;;;5092933;28;20055;-89
2023/05/06 01:43:25;;;;;;;24.77;14.85;;;11.60;99.90;;;;;;5092838;28;20044;-88
2023/05/06 01:45:52;;;;;;;23.58;15.32;;;11.50;99.90;;;;;;5094193;28;20036;-88
2023/05/06 01:48:25;;;;;;;23.60;16.30;;;11.50;99.90;;;;;;5094178;28;20063;-88
2023/05/06 01:50:51;;;;;;;23.38;15.80;;;11.50;99.90;;;;;;5094090;28;20044;-88
2023/05/06 01:53:16;;;;;;;26.10;16.52;;;11.50;99.90;;;;;;5094052;28;20044;-88
2023/05/06 01:55:42;;;;;;;22.80;16.15;;;11.40;99.90;;;;;;5092680;28;20051;-88
2023/05/06 01:58:08;;;;;;;23.40;16.45;;;11.40;99.90;;;;;;5094014;28;20082;-88
2023/05/06 02:00:33;;;;;;;28.27;15.82;;;11.40;99.90;;;;;;5092456;28;20376;-89
2023/05/06 02:02:59;;;;;;;22.33;15.75;;;11.40;99.90;;;;;;5092529;28;20419;-88
2023/05/06 02:05:25;;;;;;;22.00;15.30;;;11.30;99.90;;;;;;5092862;28;20032;-88
2023/05/06 02:07:51;;;;;;;21.25;15.85;;;11.30;99.90;;;;;;5092947;28;20059;-88
2023/05/06 02:10:17;;;;;;;23.38;15.70;;;11.30;99.90;;;;;;5092771;28;20480;-88
2023/05/06 02:12:43;;;;;;;21.20;15.70;;;11.30;99.90;;;;;;5092297;28;20040;-89
2023/05/06 02:15:09;;;;;;;23.60;15.68;;;11.30;99.90;;;;;;5092329;28;20048;-89
2023/05/06 02:17:36;;;;;;;24.42;16.42;;;11.20;99.90;;;;;;5093652;28;20036;-88
2023/05/06 02:20:02;;;;;;;23.75;16.98;;;11.30;99.90;;;;;;5093268;28;20040;-88
2023/05/06 02:22:28;;;;;;;22.08;16.63;;;11.30;99.90;;;;;;5092440;28;20059;-88
2023/05/06 02:24:57;;;;;;;23.55;16.70;;;11.40;99.90;;;;;;5091992;28;20139;-88
2023/05/06 02:27:23;;;;;;;29.67;18.20;;;11.30;99.90;;;;;;5093879;28;20052;-88
2023/05/06 02:29:48;;;;;;;25.17;17.75;;;11.40;99.90;;;;;;5092187;28;20544;-88
2023/05/06 02:32:14;;;;;;;24.17;16.33;;;11.40;99.90;;;;;;5093422;28;20047;-88
2023/05/06 02:34:40;;;;;;;25.33;17.05;;;11.40;99.90;;;;;;5093509;28;20052;-89
2023/05/06 02:37:05;;;;;;;27.52;17.63;;;11.30;99.90;;;;;;5093515;28;20084;-89
2023/05/06 02:39:31;;;;;;;26.50;18.23;;;11.40;99.90;;;;;;5092313;28;20086;-89
2023/05/06 02:41:56;;;;;;;24.55;17.92;;;11.30;99.90;;;;;;5092291;28;20067;-89
2023/05/06 02:44:22;;;;;;;25.33;17.92;;;11.30;99.90;;;;;;5093449;28;20036;-89
2023/05/06 02:46:48;;;;;;;25.75;16.55;;;11.40;99.90;;;;;;5093512;28;20129;-88
2023/05/06 02:49:13;;;;;;;28.50;17.65;;;11.40;99.90;;;;;;5093421;28;20051;-89
2023/05/06 02:51:39;;;;;;;25.15;17.23;;;11.40;99.90;;;;;;5092366;28;20044;-89
2023/05/06 02:54:05;;;;;;;27.27;19.10;;;11.40;99.90;;;;;;5092312;28;20047;-88
2023/05/06 02:56:30;;;;;;;28.05;18.05;;;11.50;99.90;;;;;;5091843;28;20036;-89
2023/05/06 02:58:56;;;;;;;26.30;18.55;;;11.50;99.90;;;;;;5091961;28;20117;-89
2023/05/06 03:01:21;;;;;;;26.80;18.17;;;11.40;99.90;;;;;;5093121;28;20129;-89
2023/05/06 03:03:47;;;;;;;28.67;18.38;;;11.40;99.90;;;;;;5091930;28;20472;-89
2023/05/06 03:06:13;;;;;;;25.98;18.30;;;11.40;99.90;;;;;;5091943;28;20094;-89
2023/05/06 03:08:38;;;;;;;28.98;18.65;;;11.50;99.90;;;;;;5093271;28;20086;-89
2023/05/06 03:11:04;;;;;;;28.65;17.75;;;11.50;99.90;;;;;;5091851;28;20120;-89
2023/05/06 03:13:29;;;;;;;29.98;19.63;;;11.50;99.90;;;;;;5091783;28;20048;-89
2023/05/06 03:15:55;;;;;;;34.88;20.40;;;11.50;99.90;;;;;;5092034;28;20098;-88
2023/05/06 03:18:21;;;;;;;31.25;20.67;;;11.50;99.90;;;;;;5093068;28;20044;-89
2023/05/06 03:20:47;;;;;;;31.55;20.33;;;11.40;99.90;;;;;;5092996;28;20458;-89
2023/05/06 03:23:13;;;;;;;35.10;21.63;;;11.40;99.90;;;;;;5091759;28;20091;-89
2023/05/06 03:25:39;;;;;;;32.85;20.13;;;11.40;99.90;;;;;;5091594;28;20076;-89
2023/05/06 03:28:05;;;;;;;31.27;19.73;;;11.40;99.90;;;;;;5092831;28;20510;-88
2023/05/06 03:30:31;;;;;;;38.38;22.35;;;11.40;99.90;;;;;;5093018;28;20416;-88
2023/05/06 03:33:00;;;;;;;33.00;20.63;;;11.50;99.90;;;;;;5094644;28;20139;-89
2023/05/06 03:35:25;;;;;;;34.90;21.67;;;11.50;99.90;;;;;;5095584;28;20047;-89
2023/05/06 03:37:51;;;;;;;37.97;22.13;;;11.40;99.90;;;;;;5096580;28;20032;-89
2023/05/06 03:40:17;;;;;;;38.20;22.65;;;11.50;99.90;;;;;;5095061;28;20071;-88
2023/05/06 03:42:43;;;;;;;44.20;23.40;;;11.50;99.90;;;;;;5096514;28;20043;-89
2023/05/06 03:45:09;;;;;;;40.72;22.80;;;11.60;99.90;;;;;;5096513;28;20044;-89
2023/05/06 03:47:34;;;;;;;39.80;22.20;;;11.50;99.90;;;;;;5096439;28;20059;-89
2023/05/06 03:50:00;;;;;;;41.78;23.17;;;11.50;99.90;;;;;;5096426;28;20066;-89
2023/05/06 03:52:26;;;;;;;39.63;22.10;;;11.50;99.90;;;;;;5096312;28;20044;-89
2023/05/06 03:54:51;;;;;;;44.28;25.20;;;11.40;99.90;;;;;;5096161;28;20036;-89
2023/05/06 03:57:17;;;;;;;39.90;23.55;;;11.50;99.90;;;;;;5094457;28;20483;-89
2023/05/06 03:59:42;;;;;;;46.55;25.15;;;11.50;99.90;;;;;;5094139;28;20043;-89
2023/05/06 04:02:08;;;;;;;46.60;24.13;;;11.50;99.90;;;;;;5094625;28;20043;-88
2023/05/06 04:04:33;;;;;;;43.10;23.52;;;11.50;99.90;;;;;;5094393;28;20498;-88
2023/05/06 04:06:59;;;;;;;48.33;24.65;;;11.50;99.90;;;;;;5094607;28;20051;-89
2023/05/06 04:09:25;;;;;;;48.70;25.45;;;11.50;99.90;;;;;;5094443;28;20119;-89
2023/05/06 04:11:51;;;;;;;46.00;25.52;;;11.50;99.90;;;;;;5094437;28;20036;-89
2023/05/06 04:14:16;;;;;;;44.40;24.38;;;11.40;99.90;;;;;;5094316;28;20047;-89
2023/05/06 04:16:42;;;;;;;45.50;25.35;;;11.50;99.90;;;;;;5094799;28;20096;-89
2023/05/06 04:19:08;;;;;;;47.30;25.45;;;11.40;99.90;;;;;;5094316;28;20097;-89
2023/05/06 04:21:33;;;;;;;46.78;25.33;;;11.40;99.90;;;;;;5094063;28;20055;-88
2023/05/06 04:24:06;;;;;;;52.38;26.60;;;11.50;99.90;;;;;;5095384;28;20055;-88
2023/05/06 04:26:32;;;;;;;49.70;25.40;;;11.50;99.90;;;;;;5094089;28;20052;-88
2023/05/06 04:28:58;;;;;;;45.67;25.70;;;11.40;99.90;;;;;;5095587;28;20051;-89
2023/05/06 04:31:23;;;;;;;43.28;24.17;;;11.50;99.90;;;;;;5095385;28;20055;-89
2023/05/06 04:33:49;;;;;;;51.47;25.35;;;11.50;99.90;;;;;;5095258;28;20044;-89
2023/05/06 04:36:14;;;;;;;51.22;26.15;;;11.50;99.90;;;;;;5093924;28;20119;-88
2023/05/06 04:38:40;;;;;;;49.72;25.83;;;11.50;99.90;;;;;;5095382;28;20185;-88
2023/05/06 04:41:06;;;;;;;57.10;28.48;;;11.50;99.90;;;;;;5093721;28;20044;-88
2023/05/06 04:43:31;;;;;;;50.05;26.45;;;11.40;99.90;;;;;;5093809;28;20132;-89
2023/05/06 04:45:57;;;;;;;52.20;25.98;;;11.40;99.90;;;;;;5095156;28;20039;-89
2023/05/06 04:48:23;;;;;;;51.95;26.63;;;11.50;99.90;;;;;;5095085;28;20040;-88
2023/05/06 04:50:49;;;;;;;56.63;27.52;;;11.50;99.90;;;;;;5095170;28;20044;-89
2023/05/06 04:53:15;;;;;;;59.22;28.20;;;11.50;99.90;;;;;;5095061;28;20036;-89
2023/05/06 04:55:41;;;;;;;53.00;26.65;;;11.50;99.90;;;;;;5095105;28;20055;-89
2023/05/06 04:58:07;;;;;;;58.67;30.58;;;11.60;99.90;;;;;;5094896;28;20115;-89
2023/05/06 05:00:33;;;;;;;58.35;28.83;;;11.50;99.90;;;;;;5094747;28;20093;-88
2023/05/06 05:02:58;;;;;;;60.03;29.23;;;11.70;99.90;;;;;;5094671;28;20050;-89
2023/05/06 05:05:26;;;;;;;59.92;28.95;;;11.60;99.90;;;;;;5093560;28;20044;-88
2023/05/06 05:07:51;;;;;;;51.45;27.27;;;11.60;99.90;;;;;;5094803;28;20044;-88
2023/05/06 05:10:17;;;;;;;52.45;27.88;;;11.60;99.90;;;;;;5094734;28;20142;-89
2023/05/06 05:12:42;;;;;;;53.85;26.85;;;11.60;99.90;;;;;;5094675;28;20070;-89
2023/05/06 05:15:08;;;;;;;50.35;27.13;;;11.60;99.90;;;;;;5095112;28;20036;-89
2023/05/06 05:17:34;;;;;;;53.58;27.23;;;11.60;99.90;;;;;;5093384;28;20095;-89
2023/05/06 05:20:00;;;;;;;50.25;27.10;;;11.70;99.90;;;;;;5093207;28;20496;-89
2023/05/06 05:22:25;;;;;;;45.05;25.00;;;11.60;99.90;;;;;;5093067;28;20427;-89
2023/05/06 05:24:53;;;;;;;44.92;24.23;;;11.70;99.90;;;;;;5094442;28;20052;-88
2023/05/06 05:27:19;;;;;;;44.05;24.02;;;11.70;99.90;;;;;;5093320;28;20052;-88
2023/05/06 05:29:44;;;;;;;45.33;24.45;;;11.70;99.90;;;;;;5093032;28;20044;-88
2023/05/06 05:32:10;;;;;;;39.28;22.75;;;11.70;99.90;;;;;;5093152;28;20056;-88
2023/05/06 05:34:36;;;;;;;42.95;23.77;;;11.60;99.90;;;;;;5093966;28;20494;-89
2023/05/06 05:37:01;;;;;;;36.08;22.38;;;11.70;99.90;;;;;;5094037;28;20475;-89
2023/05/06 05:39:27;;;;;;;35.85;20.85;;;11.60;99.90;;;;;;5092725;28;20044;-88
2023/05/06 05:41:52;;;;;;;33.35;22.30;;;11.80;99.90;;;;;;5094265;28;20097;-88
2023/05/06 05:44:18;;;;;;;37.80;21.63;;;11.70;99.90;;;;;;5094021;28;20094;-88
2023/05/06 05:46:44;;;;;;;36.05;21.73;;;11.70;99.90;;;;;;5093894;28;20052;-88
2023/05/06 05:49:09;;;;;;;34.28;21.80;;;11.80;99.90;;;;;;5092511;28;20047;-89
2023/05/06 05:51:35;;;;;;;36.35;22.45;;;11.90;99.90;;;;;;5093798;28;20047;-88
2023/05/06 05:54:00;;;;;;;37.08;23.67;;;12.00;99.90;;;;;;5093516;28;20044;-88
2023/05/06 05:56:26;;;;;;;34.38;21.63;;;12.00;99.90;;;;;;5093697;28;20050;-89
2023/05/06 05:58:52;;;;;;;36.45;22.77;;;12.20;99.90;;;;;;5092766;28;20044;-89
2023/05/06 06:01:18;;;;;;;33.47;21.70;;;12.40;99.90;;;;;;5092612;28;20445;-89
2023/05/06 06:03:44;;;;;;;33.95;22.20;;;12.50;99.90;;;;;;5092318;28;20044;-88
2023/05/06 06:06:10;;;;;;;30.90;20.70;;;12.80;99.90;;;;;;5093849;28;20044;-89
2023/05/06 06:08:36;;;;;;;32.65;19.63;;;12.90;99.90;;;;;;5093738;28;20094;-89
2023/05/06 06:11:03;;;;;;;25.17;18.15;;;13.00;99.90;;;;;;5093582;28;20055;-88
2023/05/06 06:13:29;;;;;;;24.88;18.08;;;12.80;99.90;;;;;;5093758;28;20039;-89
2023/05/06 06:15:58;;;;;;;25.02;17.83;;;12.90;99.90;;;;;;5092241;28;20044;-89
2023/05/06 06:18:23;;;;;;;25.00;17.20;;;12.90;99.90;;;;;;5093387;28;20509;-89
2023/05/06 06:20:49;;;;;;;23.95;16.88;;;12.90;99.90;;;;;;5093606;28;20083;-89
2023/05/06 06:23:15;;;;;;;22.48;16.48;;;12.80;99.90;;;;;;5093381;28;20046;-89
2023/05/06 06:25:43;;;;;;;23.73;16.02;;;12.80;99.90;;;;;;5093401;28;20052;-88
2023/05/06 06:28:09;;;;;;;23.60;16.08;;;12.80;99.90;;;;;;5092168;28;20131;-88
2023/05/06 06:30:34;;;;;;;22.88;15.95;;;12.80;99.90;;;;;;5093340;28;20131;-88
2023/05/06 06:33:00;;;;;;;22.88;15.13;;;12.70;99.90;;;;;;5093421;28;20044;-85
2023/05/06 06:35:26;;;;;;;21.98;16.02;;;12.80;99.90;;;;;;5092191;28;20122;-86
2023/05/06 06:37:53;;;;;;;19.40;14.23;;;12.80;99.90;;;;;;5086147;28;20115;-85
2023/05/06 06:40:18;;;;;;;23.52;14.75;;;12.70;99.90;;;;;;5077832;28;20044;-87
2023/05/06 06:42:45;;;;;;;20.48;14.38;;;12.80;99.90;;;;;;5072852;28;20048;-88
2023/05/06 06:45:12;;;;;;;19.92;14.23;;;12.80;99.90;;;;;;5071554;28;20526;-86
2023/05/06 06:47:38;;;;;;;21.25;14.30;;;12.90;99.90;;;;;;5071447;28;20102;-86
2023/05/06 06:50:04;;;;;;;20.70;15.00;;;13.10;99.90;;;;;;5071522;28;20044;-82
2023/05/06 06:52:30;;;;;;;19.80;15.77;;;13.40;99.90;;;;;;5071888;28;20052;-82
2023/05/06 06:54:56;;;;;;;21.98;14.63;;;13.80;99.90;;;;;;5072945;28;20045;-83
2023/05/06 06:57:22;;;;;;;18.17;13.02;;;14.00;99.90;;;;;;5072678;28;20044;-80
2023/05/06 06:59:50;;;;;;;16.92;12.02;;;14.10;99.90;;;;;;5072714;28;20055;-81
2023/05/06 07:02:16;;;;;;;18.77;12.93;;;14.20;99.90;;;;;;5072554;28;20079;-83
2023/05/06 07:04:42;;;;;;;17.77;12.55;;;14.00;99.90;;;;;;5071343;28;20079;-83
2023/05/06 07:07:07;;;;;;;14.35;11.45;;;14.00;99.90;;;;;;5076069;28;20056;-85
2023/05/06 07:09:33;;;;;;;12.80;9.57;;;14.20;99.90;;;;;;5076676;28;20039;-86
2023/05/06 07:11:59;;;;;;;12.80;9.98;;;14.20;99.90;;;;;;5076467;28;20127;-85
2023/05/06 07:14:25;;;;;;;12.55;10.10;;;14.30;99.90;;;;;;5075252;28;20051;-86
2023/05/06 07:16:51;;;;;;;11.32;8.80;;;14.40;99.90;;;;;;5075010;28;20503;-85
2023/05/06 07:19:16;;;;;;;13.15;9.43;;;14.20;99.90;;;;;;5075193;28;20075;-83
2023/05/06 07:21:42;;;;;;;10.57;8.10;;;14.40;99.90;;;;;;5076484;28;20048;-86
2023/05/06 07:24:08;;;;;;;10.13;7.78;;;14.30;99.90;;;;;;5075716;28;20067;-81
2023/05/06 07:26:36;;;;;;;10.15;8.25;;;14.30;99.90;;;;;;5076144;28;20086;-85
2023/05/06 07:29:03;;;;;;;10.07;8.25;;;14.30;99.90;;;;;;5074662;28;20048;-86
2023/05/06 07:31:30;;;;;;;10.18;7.60;;;14.20;99.90;;;;;;5086265;28;20395;-87
2023/05/06 07:33:57;;;;;;;10.63;7.22;;;14.30;99.90;;;;;;5095282;28;20487;-87
2023/05/06 07:36:23;;;;;;;9.65;7.45;;;14.30;99.90;;;;;;5096803;28;20048;-87
2023/05/06 07:38:49;;;;;;;9.38;7.15;;;14.20;99.90;;;;;;5095352;28;20117;-87
2023/05/06 07:41:15;;;;;;;8.98;6.50;;;14.10;99.90;;;;;;5096033;28;20044;-86
2023/05/06 07:43:41;;;;;;;9.77;6.68;;;14.20;99.90;;;;;;5095003;28;20043;-86
2023/05/06 07:46:07;;;;;;;9.40;7.00;;;14.20;99.90;;;;;;5096347;28;20044;-87
2023/05/06 07:48:32;;;;;;;10.35;7.03;;;14.30;99.90;;;;;;5094723;28;20404;-88
2023/05/06 07:50:58;;;;;;;8.75;6.72;;;14.30;99.90;;;;;;5095954;28;20048;-87
2023/05/06 07:53:25;;;;;;;8.77;7.13;;;14.40;99.90;;;;;;5096213;28;20043;-84
2023/05/06 07:55:57;;;;;;;9.70;6.50;;;14.40;99.90;;;;;;5096132;28;20048;-86
2023/05/06 07:58:22;;;;;;;9.50;6.60;;;14.50;99.90;;;;;;5096659;28;20047;-82
2023/05/06 08:00:48;;;;;;;9.80;7.03;;;14.70;99.90;;;;;;5095894;28;20044;-88
2023/05/06 08:03:15;;;;;;;9.60;6.60;;;14.80;99.90;;;;;;5094442;28;20103;-88
2023/05/06 08:05:41;;;;;;;8.93;6.75;;;15.00;99.90;;;;;;5094603;28;20059;-88
2023/05/06 08:08:06;;;;;;;9.57;6.35;;;15.00;99.90;;;;;;5094370;28;20050;-88
2023/05/06 08:10:32;;;;;;;8.85;6.10;;;15.20;99.90;;;;;;5095637;28;20079;-88
2023/05/06 08:12:58;;;;;;;8.85;6.45;;;15.30;99.90;;;;;;5094276;28;20043;-88
2023/05/06 08:15:24;;;;;;;9.18;6.65;;;15.50;99.90;;;;;;5094637;28;20052;-88
2023/05/06 08:17:49;;;;;;;8.52;6.57;;;15.50;99.90;;;;;;5093827;28;20070;-88
2023/05/06 08:20:15;;;;;;;8.50;6.43;;;15.60;99.90;;;;;;5094299;28;20079;-88
2023/05/06 08:22:40;;;;;;;7.43;6.07;;;15.90;99.90;;;;;;5094342;28;20059;-87
2023/05/06 08:25:07;;;;;;;7.40;6.05;;;15.90;99.90;;;;;;5094174;28;20491;-88
2023/05/06 08:27:33;;;;;;;7.68;6.03;;;16.10;99.90;;;;;;5093912;28;20056;-88
2023/05/06 08:29:58;;;;;;;8.35;6.45;;;16.00;99.90;;;;;;5093995;28;20047;-88
2023/05/06 08:32:24;;;;;;;8.05;5.75;;;16.00;99.90;;;;;;5094067;28;20059;-87
2023/05/06 08:34:50;;;;;;;8.18;5.80;;;16.10;99.90;;;;;;5094127;28;20565;-88
2023/05/06 08:37:15;;;;;;;8.73;6.35;;;16.20;99.90;;;;;;5093695;28;20046;-88
2023/05/06 08:39:41;;;;;;;10.35;5.88;;;16.40;99.90;;;;;;5095112;28;20040;-88
2023/05/06 08:42:09;;;;;;;8.10;5.28;;;16.70;99.90;;;;;;5095076;28;20097;-89
2023/05/06 08:44:35;;;;;;;6.93;5.25;;;16.80;99.90;;;;;;5093605;28;20052;-88
2023/05/06 08:47:01;;;;;;;7.20;5.50;;;16.80;99.90;;;;;;5093865;28;20050;-89
2023/05/06 08:49:27;;;;;;;7.65;5.72;;;16.90;99.90;;;;;;5093869;28;20047;-89
2023/05/06 08:51:52;;;;;;;7.03;4.30;;;17.00;99.90;;;;;;5094685;28;20046;-87
2023/05/06 08:54:18;;;;;;;5.72;5.07;;;17.20;99.90;;;;;;5093539;28;20127;-89
2023/05/06 08:56:50;;;;;;;6.35;4.35;;;17.20;99.90;;;;;;5093570;28;20051;-89
2023/05/06 08:59:22;;;;;;;6.38;4.82;;;17.30;99.90;;;;;;5093617;28;20059;-89
2023/05/06 09:01:48;;;;;;;7.78;5.90;;;17.40;99.90;;;;;;5093370;28;20056;-89
2023/05/06 09:04:15;;;;;;;8.98;6.40;;;17.50;99.90;;;;;;5093184;28;20040;-88
2023/05/06 09:06:41;;;;;;;8.25;5.53;;;17.40;99.90;;;;;;5093267;28;20123;-87
2023/05/06 09:09:07;;;;;;;8.25;5.95;;;17.50;99.90;;;;;;5094341;28;20119;-89
2023/05/06 09:11:35;;;;;;;8.63;6.72;;;17.60;99.90;;;;;;5093532;28;20492;-89
2023/05/06 09:14:12;;;;;;;10.20;6.68;;;17.80;99.90;;;;;;5094367;28;20122;-88
2023/05/06 09:16:40;;;;;;;9.68;6.78;;;17.70;99.90;;;;;;5094313;28;20499;-88
2023/05/06 09:19:05;;;;;;;9.48;6.47;;;17.90;99.90;;;;;;5094277;28;20422;-88
2023/05/06 09:21:36;;;;;;;9.70;6.75;;;18.10;99.90;;;;;;5094361;28;20050;-88
2023/05/06 09:24:03;;;;;;;9.63;6.30;;;18.20;99.90;;;;;;5093080;28;20058;-87
2023/05/06 09:26:31;;;;;;;8.18;6.60;;;18.40;99.90;;;;;;5093179;28;20131;-88
2023/05/06 09:28:58;;;;;;;11.07;6.35;;;18.40;99.90;;;;;;5092147;28;20477;-88
2023/05/06 09:31:25;;;;;;;9.32;6.70;;;18.40;99.90;;;;;;5092716;28;20048;-89
2023/05/06 09:33:55;;;;;;;8.95;6.68;;;18.50;99.90;;;;;;5092990;28;20040;-89
2023/05/06 09:36:23;;;;;;;7.75;5.97;;;18.60;99.90;;;;;;5093951;28;20044;-88
2023/05/06 09:38:49;;;;;;;8.45;5.78;;;18.60;99.90;;;;;;5093856;28;20054;-88
2023/05/06 09:41:19;;;;;;;10.40;6.45;;;18.50;99.90;;;;;;5092543;28;20052;-88
2023/05/06 09:43:47;;;;;;;8.30;6.35;;;18.70;99.90;;;;;;5092869;28;20056;-88
2023/05/06 09:46:14;;;;;;;8.98;6.60;;;18.80;99.90;;;;;;5094064;28;20111;-88
2023/05/06 09:48:40;;;;;;;8.32;6.50;;;18.90;99.90;;;;;;5093648;28;20047;-89
2023/05/06 09:51:07;;;;;;;8.70;6.00;;;18.90;99.90;;;;;;5092562;28;20052;-88
2023/05/06 09:53:36;;;;;;;10.10;6.22;;;19.00;99.90;;;;;;5092694;28;20058;-88
2023/05/06 09:56:04;;;;;;;8.10;5.80;;;19.00;99.90;;;;;;5092531;28;20103;-88
2023/05/06 09:58:31;;;;;;;6.82;5.65;;;18.90;99.90;;;;;;5093941;28;20044;-88
2023/05/06 10:00:56;;;;;;;8.25;5.72;;;18.70;99.90;;;;;;5093772;28;20105;-87
2023/05/06 10:03:23;;;;;;;6.43;5.20;;;19.10;99.90;;;;;;5093566;28;20040;-88
2023/05/06 10:05:49;;;;;;;7.03;5.40;;;19.00;99.90;;;;;;5093826;28;20044;-87
2023/05/06 10:08:17;;;;;;;8.07;6.20;;;18.90;99.90;;;;;;5092195;28;20056;-89
2023/05/06 10:10:45;;;;;;;10.32;6.05;;;18.70;99.90;;;;;;5092146;28;20381;-87
2023/05/06 10:13:12;;;;;;;9.10;6.15;;;18.70;99.90;;;;;;5092474;28;20056;-87
2023/05/06 10:15:38;;;;;;;9.18;6.47;;;18.60;99.90;;;;;;5093569;28;20040;-88
2023/05/06 10:18:06;;;;;;;9.23;6.50;;;18.50;99.90;;;;;;5093358;28;20090;-87
2023/05/06 10:20:34;;;;;;;8.25;6.72;;;18.70;99.90;;;;;;5091990;28;20506;-87
2023/05/06 10:23:09;;;;;;;8.57;6.20;;;18.80;99.90;;;;;;5093545;28;20032;-87
2023/05/06 10:25:41;;;;;;;8.95;6.50;;;18.80;99.90;;;;;;5093134;28;20063;-87
2023/05/06 10:28:09;;;;;;;8.77;6.20;;;18.80;99.90;;;;;;5093249;28;20083;-88
2023/05/06 10:30:36;;;;;;;10.90;6.45;;;18.80;99.90;;;;;;5093194;28;20051;-89
2023/05/06 10:33:08;;;;;;;8.32;6.57;;;18.90;99.90;;;;;;5093539;28;20105;-88
2023/05/06 10:35:40;;;;;;;8.97;6.87;;;18.80;99.90;;;;;;5093328;28;20056;-88
2023/05/06 10:38:31;;;;;;;7.95;6.53;;;18.60;99.90;;;;;;5092240;28;20399;-88
2023/05/06 10:40:59;;;;;;;9.00;7.00;;;18.80;99.90;;;;;;5093322;28;20457;-89
2023/05/06 10:43:30;;;;;;;8.80;7.78;;;18.70;99.90;;;;;;5097757;28;20161;-87
2023/05/06 10:46:02;;;;;;;11.07;9.90;;;18.60;99.90;;;;;;5098781;28;20032;-86
2023/05/06 10:48:28;;;;;;;10.50;8.80;;;18.50;99.90;;;;;;5098981;28;20044;-87
2023/05/06 10:51:13;;;;;;;13.70;9.82;;;18.10;99.90;;;;;;5097125;28;20096;-86
2023/05/06 10:54:07;;;;;;;13.80;11.75;;;18.00;99.90;;;;;;5098950;28;20051;-86
2023/05/06 10:57:09;;;;;;;14.02;11.75;;;17.90;99.90;;;;;;5098294;28;20146;-87
2023/05/06 10:59:35;;;;;;;13.57;11.65;;;18.00;99.90;;;;;;5097574;28;20129;-87
2023/05/06 11:02:03;;;;;;;15.25;12.05;;;17.90;99.90;;;;;;5097873;28;20040;-87
2023/05/06 11:04:30;;;;;;;16.80;13.30;;;17.70;99.90;;;;;;5095899;28;20044;-87
2023/05/06 11:07:13;;;;;;;13.63;11.82;;;17.50;99.90;;;;;;5097059;28;20062;-87
2023/05/06 11:09:55;;;;;;;14.38;11.98;;;17.60;99.90;;;;;;5098027;28;20062;-87
2023/05/06 11:12:21;;;;;;;18.03;12.97;;;17.90;99.90;;;;;;5097680;28;20066;-87
2023/05/06 11:14:46;;;;;;;14.13;10.82;;;17.40;99.90;;;;;;5096293;28;20618;-87
2023/05/06 11:17:30;;;;;;;13.43;10.98;;;17.40;99.90;;;;;;5096464;28;20151;-86
2023/05/06 11:20:24;;;;;;;13.75;11.00;;;17.10;99.90;;;;;;5096850;28;20483;-84
2023/05/06 11:22:51;;;;;;;15.15;10.70;;;17.30;99.90;;;;;;5096066;28;20109;-87
2023/05/06 11:25:40;;;;;;;13.27;9.60;;;17.00;99.90;;;;;;5096800;28;20044;-87
2023/05/06 11:28:10;;;;;;;11.15;9.57;;;17.00;99.90;;;;;;5097651;28;20059;-86
2023/05/06 11:30:40;;;;;;;12.18;9.88;;;16.80;99.90;;;;;;5097043;28;20080;-89
2023/05/06 11:33:07;;;;;;;11.18;8.85;;;16.70;99.90;;;;;;5095535;28;20367;-87
2023/05/06 11:35:36;;;;;;;13.20;8.70;;;16.70;99.90;;;;;;5096638;28;20040;-87
2023/05/06 11:38:03;;;;;;;14.10;10.00;;;16.70;99.90;;;;;;5096486;28;20094;-86
2023/05/06 11:40:29;;;;;;;13.02;8.90;;;16.50;99.90;;;;;;5095083;28;20036;-85
2023/05/06 11:42:55;;;;;;;13.10;9.15;;;16.40;99.90;;;;;;5096521;28;20048;-88
2023/05/06 11:45:21;;;;;;;11.70;8.68;;;16.60;99.90;;;;;;5096107;28;20391;-87
2023/05/06 11:47:47;;;;;;;12.02;8.15;;;16.80;99.90;;;;;;5096383;28;20503;-88
2023/05/06 11:50:12;;;;;;;12.82;8.80;;;16.90;99.90;;;;;;5096081;28;20052;-87
2023/05/06 11:52:39;;;;;;;13.50;9.02;;;17.00;99.90;;;;;;5094110;28;20479;-87
2023/05/06 11:55:08;;;;;;;11.00;8.85;;;16.90;99.90;;;;;;5095987;28;20372;-87
2023/05/06 11:57:34;;;;;;;13.50;9.77;;;16.70;99.90;;;;;;5096066;28;20093;-88
2023/05/06 12:00:00;;;;;;;13.82;10.00;;;16.50;99.90;;;;;;5094763;28;20048;-88
2023/05/06 12:02:25;;;;;;;14.82;11.07;;;16.30;99.90;;;;;;5094578;28;20052;-87
2023/05/06 12:04:51;;;;;;;15.10;11.98;;;16.20;99.90;;;;;;5095894;28;20044;-88
2023/05/06 12:07:17;;;;;;;15.50;11.80;;;16.10;99.90;;;;;;5094808;28;20052;-87
2023/05/06 12:09:45;;;;;;;14.07;11.57;;;16.00;99.90;;;;;;5095767;28;20047;-87
2023/05/06 12:12:15;;;;;;;17.17;12.52;;;16.00;99.90;;;;;;5095825;28;20078;-86
2023/05/06 12:14:42;;;;;;;15.35;12.02;;;15.90;99.90;;;;;;5094694;28;20055;-86
2023/05/06 12:17:07;;;;;;;16.25;12.85;;;15.80;99.90;;;;;;5096184;28;20063;-85
2023/05/06 12:19:33;;;;;;;17.40;13.60;;;15.80;99.90;;;;;;5094828;28;20497;-86
2023/05/06 12:22:23;;;;;;;19.23;12.73;;;15.70;99.90;;;;;;5095190;28;20055;-86
2023/05/06 12:24:49;;;;;;;22.02;14.55;;;15.60;99.90;;;;;;5096555;28;20052;-86
2023/05/06 12:27:35;;;;;;;16.60;13.63;;;15.50;99.90;;;;;;5095154;28;20083;-87
2023/05/06 12:30:03;;;;;;;19.73;13.77;;;15.40;99.90;;;;;;5095755;28;20056;-87
2023/05/06 12:32:29;;;;;;;19.48;13.27;;;15.50;99.90;;;;;;5095494;28;20040;-87
2023/05/06 12:34:55;;;;;;;34.58;14.43;;;15.80;99.90;;;;;;5094707;28;20515;-87